Atlas, Michigan
Current Conditions -  °F | °C
As of 3:53 AM on Thursday 27 Nov 2014 (Local Time) from KFNT Reporting Station
Overcast Overcast  
Wind Chill: 22°   Ceiling: 4800
Heat Index: 27°   Visibility: 10mi
Dew Point: 22°   Wind: 5mph
Humidity: 81%   Direction: 300°WNW
Pressure: 30.11"   Gusts: NA
Location:  42.94°N, 83.53°W
Report Text: KFNT 270853Z AUTO 30004KT 10SM OVC048 M03/M06 A3011 RMK AO2 SLP205 T10281056 56000
Loading
Personal Weather Stations






























Interactive Weather Map New forecast layout! Learn more

10-Day Weather Forecast

Advertisements
Track Severe Weather on mobile